createdAt,value
2023-11-20T00:01:56.639Z,6.35
2023-11-20T00:07:01.015Z,5.96
2023-11-20T00:12:04.805Z,5.47
2023-11-20T00:17:07.824Z,5.24
2023-11-20T00:22:12.132Z,5.04
2023-11-20T00:27:16.616Z,4.88
2023-11-20T00:32:19.691Z,4.91
2023-11-20T00:37:24.042Z,4.89
2023-11-20T00:42:27.010Z,5.05
2023-11-20T00:47:29.971Z,5.09
2023-11-20T00:52:35.940Z,5.00
2023-11-20T00:57:39.558Z,5.06
2023-11-20T01:02:44.263Z,5.02
2023-11-20T01:07:49.167Z,4.96
2023-11-20T01:12:52.231Z,4.77
2023-11-20T01:17:55.229Z,4.75
2023-11-20T01:22:59.735Z,4.78
2023-11-20T01:28:02.817Z,4.79
2023-11-20T01:33:05.825Z,4.90
2023-11-20T01:38:10.227Z,4.99
2023-11-20T01:43:13.429Z,4.87
2023-11-20T01:48:16.790Z,4.46
2023-11-20T01:53:21.389Z,4.39
2023-11-20T01:58:26.272Z,4.40
2023-11-20T02:03:29.277Z,4.30
2023-11-20T02:08:33.706Z,4.19
2023-11-20T02:13:37.317Z,4.14
2023-11-20T02:18:40.280Z,4.19
2023-11-20T02:23:44.642Z,4.32
2023-11-20T02:28:54.570Z,4.38
2023-11-20T02:34:02.347Z,4.42
2023-11-20T02:39:06.984Z,4.44
2023-11-20T02:44:10.083Z,4.50
2023-11-20T02:49:15.985Z,4.53
2023-11-20T02:54:18.972Z,4.57
2023-11-20T02:59:22.035Z,4.64
2023-11-20T03:04:26.694Z,4.62
2023-11-20T03:09:29.628Z,4.62
2023-11-20T03:14:32.508Z,4.61
2023-11-20T03:19:36.840Z,4.62
2023-11-20T03:24:39.818Z,4.55
2023-11-20T03:29:45.167Z,4.27
2023-11-20T03:34:49.570Z,4.15
2023-11-20T03:39:52.595Z,4.32
2023-11-20T03:44:55.635Z,4.45
2023-11-20T03:49:59.934Z,4.46
2023-11-20T03:55:02.901Z,4.40
2023-11-20T04:00:06.945Z,4.50
2023-11-20T04:05:11.511Z,4.62
2023-11-20T04:10:14.520Z,4.62
2023-11-20T04:15:17.505Z,4.54
2023-11-20T04:20:22.152Z,4.36
2023-11-20T04:25:25.604Z,4.40
2023-11-20T04:30:29.594Z,4.48
2023-11-20T04:35:33.972Z,4.51
2023-11-20T04:40:37.226Z,4.45
2023-11-20T04:45:40.208Z,4.36
2023-11-20T04:50:44.587Z,4.46
2023-11-20T04:55:47.485Z,4.48
2023-11-20T05:00:50.924Z,4.70
2023-11-20T05:05:55.314Z,4.70
2023-11-20T05:10:58.236Z,4.80
2023-11-20T05:16:01.256Z,4.82
2023-11-20T05:21:06.281Z,4.90
2023-11-20T05:26:10.570Z,4.74
2023-11-20T05:31:13.576Z,4.72
2023-11-20T05:36:17.980Z,4.65
2023-11-20T05:41:20.970Z,4.45
2023-11-20T05:46:24.138Z,4.36
2023-11-20T05:51:28.490Z,4.35
2023-11-20T05:56:32.482Z,4.38
2023-11-20T06:01:39.214Z,4.49
2023-11-20T06:06:43.643Z,4.57
2023-11-20T06:11:50.322Z,4.61
2023-11-20T06:16:53.331Z,4.60
2023-11-20T06:21:57.959Z,4.67
2023-11-20T06:27:01.048Z,4.81
2023-11-20T06:32:04.125Z,4.87
2023-11-20T06:37:08.955Z,4.89
2023-11-20T06:42:11.878Z,4.97
2023-11-20T06:47:14.927Z,5.04
2023-11-20T06:52:19.534Z,5.26
2023-11-20T06:57:24.187Z,5.77
2023-11-20T07:02:27.428Z,5.96
2023-11-20T07:07:31.961Z,6.27
2023-11-20T07:12:35.055Z,6.59
2023-11-20T07:17:38.632Z,6.96
2023-11-20T07:22:43.049Z,7.55
2023-11-20T07:27:46.054Z,7.90
2023-11-20T07:32:49.381Z,8.33
2023-11-20T07:37:53.779Z,9.05
2023-11-20T07:42:57.504Z,9.76
2023-11-20T07:48:01.019Z,10.36
2023-11-20T07:53:06.270Z,10.93
2023-11-20T07:58:09.222Z,11.39
2023-11-20T08:03:12.257Z,11.96
2023-11-20T08:08:16.577Z,12.31
2023-11-20T08:13:19.520Z,12.73
2023-11-20T08:18:22.593Z,12.88
2023-11-20T08:23:26.973Z,12.69
2023-11-20T08:28:29.859Z,13.39
2023-11-20T08:33:33.113Z,13.29
2023-11-20T08:38:37.654Z,12.46
2023-11-20T08:43:41.274Z,12.22
2023-11-20T08:48:44.762Z,11.98
2023-11-20T08:53:49.221Z,12.10
2023-11-20T08:58:52.203Z,11.54
2023-11-20T09:03:55.707Z,11.37
2023-11-20T09:09:00.263Z,11.46
2023-11-20T09:14:03.146Z,11.19
2023-11-20T09:19:06.292Z,10.88
2023-11-20T09:24:11.157Z,10.75
2023-11-20T09:29:14.241Z,10.84
2023-11-20T09:34:19.994Z,10.90
2023-11-20T09:39:24.399Z,10.88
2023-11-20T09:44:29.238Z,10.92
2023-11-20T09:49:34.790Z,10.94
2023-11-20T09:54:42.313Z,10.97
2023-11-20T09:59:45.776Z,11.03
2023-11-20T10:04:55.084Z,11.18
2023-11-20T10:10:00.111Z,11.20
2023-11-20T10:15:03.381Z,11.39
2023-11-20T10:20:10.790Z,11.49
2023-11-20T10:25:15.259Z,11.56
2023-11-20T10:30:20.671Z,11.66
2023-11-20T10:35:24.265Z,11.92
2023-11-20T10:40:28.620Z,12.10
2023-11-20T10:45:31.555Z,12.40
2023-11-20T10:50:36.334Z,12.55
2023-11-20T10:55:45.293Z,12.65
2023-11-20T11:00:51.007Z,12.80
2023-11-20T11:05:54.703Z,12.90
2023-11-20T11:10:59.925Z,13.09
2023-11-20T11:16:07.835Z,13.38
2023-11-20T11:21:13.303Z,13.43
2023-11-20T11:26:23.897Z,13.63
2023-11-20T11:31:37.434Z,13.76
2023-11-20T11:36:51.076Z,14.09
2023-11-20T11:42:10.332Z,14.24
2023-11-20T11:47:16.010Z,14.43
2023-11-20T11:52:28.123Z,14.73
2023-11-20T11:57:33.097Z,14.87
2023-11-20T12:03:10.971Z,14.99
2023-11-20T12:08:14.441Z,15.55
2023-11-20T12:13:19.693Z,16.12
2023-11-20T12:18:25.360Z,17.22
2023-11-20T12:23:31.485Z,18.31
2023-11-20T12:28:37.676Z,17.92
2023-11-20T12:33:43.168Z,17.97
2023-11-20T12:38:47.513Z,18.15
2023-11-20T12:43:51.877Z,18.36
2023-11-20T12:48:54.849Z,18.46
2023-11-20T12:53:58.904Z,18.58
2023-11-20T12:59:03.213Z,18.24
2023-11-20T13:04:07.380Z,17.75
2023-11-20T13:09:10.694Z,17.38
2023-11-20T13:14:15.901Z,17.43
2023-11-20T13:19:40.867Z,17.27
2023-11-20T13:24:56.430Z,17.42
2023-11-20T13:30:16.682Z,17.39
2023-11-20T13:35:21.055Z,17.27
2023-11-20T13:40:30.759Z,16.88
2023-11-20T13:45:41.339Z,16.63
2023-11-20T13:50:45.921Z,16.40
2023-11-20T13:55:50.376Z,16.09
2023-11-20T14:00:58.238Z,15.79
2023-11-20T14:06:02.109Z,15.65
2023-11-20T14:11:05.609Z,15.52
2023-11-20T14:16:13.757Z,15.28
2023-11-20T14:21:18.028Z,15.08
2023-11-20T14:26:29.543Z,14.90
2023-11-20T14:31:40.088Z,14.63
2023-11-20T14:36:43.573Z,14.43
2023-11-20T14:41:46.475Z,14.28
2023-11-20T14:46:50.798Z,14.09
2023-11-20T14:51:54.277Z,13.88
2023-11-20T14:56:57.374Z,13.69
2023-11-20T15:02:02.697Z,13.50
2023-11-20T15:07:06.170Z,13.37
2023-11-20T15:12:10.076Z,13.20
2023-11-20T15:17:14.726Z,13.03
2023-11-20T15:22:17.847Z,12.92
2023-11-20T15:27:21.929Z,12.73
2023-11-20T15:32:26.297Z,12.56
2023-11-20T15:37:30.690Z,12.46
2023-11-20T15:42:33.886Z,12.40
2023-11-20T15:47:39.380Z,12.30
2023-11-20T15:52:42.658Z,12.24
2023-11-20T15:57:47.352Z,12.20
2023-11-20T16:02:51.662Z,12.12
2023-11-20T16:07:54.577Z,12.05
2023-11-20T16:12:57.532Z,12.00
